createdAt,value
2016-04-13T00:02:36.946Z,6
2016-04-13T00:05:52.251Z,6
2016-04-13T00:08:54.873Z,5.9
2016-04-13T00:12:07.537Z,5.9
2016-04-13T00:15:17.483Z,6
2016-04-13T00:18:30.056Z,5.9
2016-04-13T00:21:42.659Z,5.9
2016-04-13T00:24:55.025Z,5.8
2016-04-13T00:28:07.440Z,5.8
2016-04-13T00:31:17.948Z,5.8
2016-04-13T00:34:32.084Z,5.8
2016-04-13T00:37:42.482Z,5.8
2016-04-13T00:40:52.523Z,5.9
2016-04-13T00:44:07.326Z,5.9
2016-04-13T00:47:19.617Z,5.8
2016-04-13T00:50:32.080Z,5.8
2016-04-13T00:53:49.650Z,5.7
2016-04-13T00:56:57.283Z,5.8
2016-04-13T00:59:59.869Z,5.9
2016-04-13T01:03:12.456Z,6
2016-04-13T01:06:22.448Z,6
2016-04-13T01:09:33.554Z,6.1
2016-04-13T01:12:43.050Z,6.2
2016-04-13T01:15:55.416Z,6.2
2016-04-13T01:19:07.674Z,6.3
2016-04-13T01:22:20.453Z,6.3
2016-04-13T01:25:30.510Z,6.3
2016-04-13T01:28:43.065Z,6.4
2016-04-13T01:31:55.854Z,6.4
2016-04-13T01:35:08.143Z,6.4
2016-04-13T01:38:18.604Z,6.4
2016-04-13T01:41:31.178Z,6.4
2016-04-13T01:44:43.827Z,6.5
2016-04-13T01:47:56.601Z,6.5
2016-04-13T01:51:07.045Z,6.6
2016-04-13T01:54:17.194Z,6.6
2016-04-13T01:57:26.580Z,6.6
2016-04-13T02:00:39.072Z,6.6
2016-04-13T02:03:54.032Z,6.6
2016-04-13T02:06:56.814Z,6.6
2016-04-13T02:10:09.478Z,6.6
2016-04-13T02:13:19.304Z,6.6
2016-04-13T02:16:31.103Z,6.6
2016-04-13T02:19:41.471Z,6.7
2016-04-13T02:22:56.434Z,6.6
2016-04-13T02:25:56.865Z,6.6
2016-04-13T02:29:11.311Z,6.6
2016-04-13T02:32:23.756Z,6.6
2016-04-13T02:35:32.939Z,6.7
2016-04-13T02:38:42.963Z,6.7
2016-04-13T02:41:55.408Z,6.6
2016-04-13T02:45:04.587Z,6.6
2016-04-13T02:48:15.049Z,6.6
2016-04-13T02:51:27.544Z,6.6
2016-04-13T02:54:39.880Z,6.6
2016-04-13T02:57:57.294Z,6.6
2016-04-13T03:00:59.881Z,6.6
2016-04-13T03:04:08.670Z,6.5
2016-04-13T03:07:17.256Z,6.5
2016-04-13T03:10:25.952Z,6.4
2016-04-13T03:13:38.056Z,6.3
2016-04-13T03:16:55.174Z,6.3
2016-04-13T03:19:57.823Z,6.3
2016-04-13T03:23:06.612Z,6.2
2016-04-13T03:26:21.401Z,6.2
2016-04-13T03:29:33.740Z,6.1
2016-04-13T03:32:51.092Z,6.1
2016-04-13T03:35:58.631Z,6
2016-04-13T03:38:58.920Z,6
2016-04-13T03:42:14.183Z,5.9
2016-04-13T03:45:26.723Z,5.9
2016-04-13T03:48:39.015Z,5.9
2016-04-13T03:51:56.304Z,5.9
2016-04-13T03:54:56.812Z,5.8
2016-04-13T03:58:11.320Z,5.8
2016-04-13T04:01:23.781Z,5.8
2016-04-13T04:04:36.230Z,5.8
2016-04-13T04:07:53.988Z,5.7
2016-04-13T04:10:56.464Z,5.7
2016-04-13T04:14:08.880Z,5.7
2016-04-13T04:17:21.465Z,5.8
2016-04-13T04:20:34.070Z,5.9
2016-04-13T04:23:44.062Z,5.9
2016-04-13T04:26:56.554Z,5.9
2016-04-13T04:30:06.312Z,6
2016-04-13T04:33:18.790Z,6
2016-04-13T04:36:31.394Z,6
2016-04-13T04:39:40.964Z,6
2016-04-13T04:42:58.083Z,6
2016-04-13T04:46:00.668Z,6.1
2016-04-13T04:49:12.770Z,6.1
2016-04-13T04:52:25.121Z,6.2
2016-04-13T04:55:37.726Z,6.3
2016-04-13T04:58:51.782Z,6.4
2016-04-13T05:01:54.633Z,6.4
2016-04-13T05:05:07.031Z,6.5
2016-04-13T05:08:18.805Z,6.5
2016-04-13T05:11:31.439Z,6.7
2016-04-13T05:14:44.168Z,6.8
2016-04-13T05:17:56.613Z,6.9
2016-04-13T05:21:09.262Z,7
2016-04-13T05:24:20.317Z,7.1
2016-04-13T05:27:30.591Z,7.2
2016-04-13T05:30:43.273Z,7.3
2016-04-13T05:33:55.860Z,7.3
2016-04-13T05:37:06.539Z,7.4
2016-04-13T05:40:19.189Z,7.5
2016-04-13T05:43:31.930Z,7.7
2016-04-13T05:46:42.301Z,7.8
2016-04-13T05:49:55.012Z,7.9
2016-04-13T05:53:07.504Z,8
2016-04-13T05:56:18.606Z,8
2016-04-13T05:59:29.162Z,8
2016-04-13T06:02:39.015Z,8.1
2016-04-13T06:05:56.681Z,8.1
2016-04-13T06:08:59.439Z,8.2
2016-04-13T06:12:11.822Z,8.2
2016-04-13T06:15:24.235Z,8.3
2016-04-13T06:18:34.480Z,8.3
2016-04-13T06:21:52.004Z,8.3
2016-04-13T06:24:52.543Z,8.3
2016-04-13T06:28:07.333Z,8.3
2016-04-13T06:31:19.857Z,8.3
2016-04-13T06:34:29.177Z,8.4
2016-04-13T06:37:41.689Z,8.5
2016-04-13T06:40:56.400Z,8.6
2016-04-13T06:43:59.282Z,8.9
2016-04-13T06:47:11.947Z,9.2
2016-04-13T06:50:24.345Z,9.4
2016-04-13T06:53:37.152Z,9.6
2016-04-13T06:56:54.099Z,9.9
2016-04-13T06:59:57.404Z,10.5
2016-04-13T07:03:08.881Z,11.6
2016-04-13T07:06:20.560Z,13.2
2016-04-13T07:09:36.742Z,14.8
2016-04-13T07:15:59.759Z,16.9
2016-04-13T07:19:13.595Z,17.8
2016-04-13T07:22:27.572Z,18.1
2016-04-13T07:25:38.943Z,18.9
2016-04-13T07:28:55.951Z,20.4
2016-04-13T07:32:08.129Z,22
2016-04-13T07:35:23.747Z,23.2
2016-04-13T07:38:38.540Z,24.3
2016-04-13T07:41:54.704Z,25.3
2016-04-13T07:45:10.602Z,26.4
2016-04-13T07:48:24.469Z,27.3
2016-04-13T07:51:37.903Z,28.2
2016-04-13T07:54:58.801Z,28.8
2016-04-13T07:58:05.434Z,29.5
2016-04-13T08:01:19.255Z,30.2
2016-04-13T08:04:37.547Z,30.8
2016-04-13T08:07:58.039Z,31.7
2016-04-13T08:11:03.021Z,32.4
2016-04-13T08:14:15.061Z,32.6
2016-04-13T08:17:29.991Z,33.4
2016-04-13T08:20:44.391Z,33.8
2016-04-13T08:23:59.400Z,34.1
2016-04-13T08:27:12.924Z,34.5
2016-04-13T08:30:27.557Z,34.5
2016-04-13T08:33:42.489Z,34.5
2016-04-13T08:36:57.263Z,34.7
2016-04-13T08:40:10.895Z,34
2016-04-13T08:43:24.591Z,31.5
2016-04-13T08:46:37.774Z,29.4
2016-04-13T08:49:55.767Z,27.1
2016-04-13T08:52:59.118Z,25.2
2016-04-13T08:56:09.580Z,24.7
2016-04-13T08:59:24.135Z,26.7
2016-04-13T09:02:35.721Z,27.4
2016-04-13T09:05:55.481Z,29.6
2016-04-13T09:09:00.942Z,31.8
2016-04-13T09:12:13.950Z,33.4
2016-04-13T09:15:29.006Z,34
2016-04-13T09:18:43.813Z,33.5
2016-04-13T09:21:56.947Z,33.9
2016-04-13T09:25:08.735Z,34.5
2016-04-13T09:28:21.682Z,35.2
2016-04-13T09:31:36.612Z,35.7
2016-04-13T09:34:56.497Z,36.4
2016-04-13T09:38:01.943Z,36.4
2016-04-13T09:41:15.419Z,36.5
2016-04-13T09:44:28.271Z,36.8
2016-04-13T09:47:43.157Z,37.4
2016-04-13T09:50:58.056Z,37.2
2016-04-13T09:54:09.572Z,36.8
2016-04-13T09:57:23.394Z,33.9
2016-04-13T10:00:37.130Z,32.4
2016-04-13T10:03:53.860Z,30.7
2016-04-13T10:06:57.606Z,28.6
2016-04-13T10:10:10.942Z,26.6
2016-04-13T10:13:22.763Z,25.6
2016-04-13T10:16:35.083Z,24.7
2016-04-13T10:19:54.798Z,23.8
2016-04-13T10:23:00.275Z,23.4
2016-04-13T10:26:11.752Z,22.8
2016-04-13T10:29:26.713Z,21.9
2016-04-13T10:32:38.243Z,21.5
2016-04-13T10:35:57.754Z,21.4
2016-04-13T10:39:02.729Z,21.1
2016-04-13T10:42:14.643Z,20.8
2016-04-13T10:45:28.011Z,20.4
2016-04-13T10:48:41.566Z,20.4
2016-04-13T10:51:56.076Z,20.4
2016-04-13T10:54:59.819Z,20.4
2016-04-13T10:58:13.046Z,20.2
2016-04-13T11:01:25.594Z,19.9
2016-04-13T11:04:36.859Z,19.8
2016-04-13T11:10:58.474Z,19.5
2016-04-13T11:14:08.406Z,19.3
2016-04-13T11:17:17.167Z,19
2016-04-13T11:20:31.103Z,19
2016-04-13T11:23:43.816Z,19
2016-04-13T11:26:59.170Z,19.1
2016-04-13T11:30:02.586Z,19
2016-04-13T11:33:15.858Z,19
2016-04-13T11:36:27.761Z,18.8
2016-04-13T11:39:39.659Z,18.7
2016-04-13T11:42:56.385Z,18.6
2016-04-13T11:46:00.050Z,18.4
2016-04-13T11:49:13.574Z,18.5
2016-04-13T11:52:26.725Z,18.5
2016-04-13T11:55:40.359Z,18.6
2016-04-13T11:58:55.069Z,18.7
2016-04-13T12:01:58.828Z,18.6
2016-04-13T12:05:11.992Z,18.6
2016-04-13T12:08:22.613Z,18.3
2016-04-13T12:11:36.231Z,18.3
2016-04-13T12:14:54.598Z,18.3
2016-04-13T12:17:58.325Z,18.4
2016-04-13T12:21:11.552Z,18.5
2016-04-13T12:24:24.874Z,18.4
2016-04-13T12:27:38.415Z,18.2
2016-04-13T12:30:55.001Z,18.1
2016-04-13T12:33:56.759Z,18
2016-04-13T12:37:12.094Z,18
2016-04-13T12:40:25.434Z,18.1
2016-04-13T12:43:39.067Z,18.2
2016-04-13T12:46:57.372Z,18.2
2016-04-13T18:29:45.771Z,12.4
2016-04-13T18:32:56.265Z,12.3
2016-04-13T18:36:09.366Z,12.2
2016-04-13T18:39:27.280Z,12.1
2016-04-13T18:42:30.398Z,12
2016-04-13T18:45:43.300Z,12
2016-04-13T18:48:56.572Z,11.9
2016-04-13T18:52:06.627Z,11.9
2016-04-13T18:55:23.152Z,11.8
2016-04-13T18:58:24.535Z,11.8
2016-04-13T19:01:39.154Z,11.8
2016-04-13T19:04:49.928Z,11.8
2016-04-13T19:08:02.328Z,11.7
2016-04-13T19:11:20.350Z,11.6
2016-04-13T19:14:28.687Z,11.6
2016-04-13T19:17:36.120Z,11.5
2016-04-13T19:20:45.113Z,11.5
2016-04-13T19:23:55.291Z,11.4
2016-04-13T19:27:05.112Z,11.4
2016-04-13T19:30:20.340Z,11.4
2016-04-13T19:33:28.660Z,11.4
2016-04-13T19:36:31.996Z,11.4
2016-04-13T19:39:45.164Z,11.4
2016-04-13T19:42:58.139Z,11.4
2016-04-13T19:46:22.914Z,11.4
2016-04-13T19:49:25.078Z,11.4
2016-04-13T19:52:28.204Z,11.4
2016-04-13T19:55:40.827Z,11.4
2016-04-13T19:58:53.569Z,11.4
2016-04-13T20:02:03.780Z,11.3
2016-04-13T20:05:20.898Z,11.3
2016-04-13T20:08:28.881Z,11.2
2016-04-13T20:11:31.894Z,11.2
2016-04-13T20:14:44.272Z,11.1
2016-04-13T20:17:56.876Z,11.1
2016-04-13T20:21:09.573Z,11.1
2016-04-13T20:24:27.042Z,11.1
2016-04-13T20:27:29.977Z,11.1
2016-04-13T20:30:43.194Z,11
2016-04-13T20:33:53.969Z,11
2016-04-13T20:37:09.026Z,11
2016-04-13T20:40:26.815Z,10.9
2016-04-13T20:43:29.995Z,10.9
2016-04-13T20:46:42.521Z,10.8
2016-04-13T20:49:55.233Z,10.8
2016-04-13T20:53:08.131Z,10.8
2016-04-13T20:56:24.655Z,10.7
2016-04-13T20:59:31.725Z,10.7
2016-04-13T21:02:40.143Z,10.6
2016-04-13T21:05:52.072Z,10.6
2016-04-13T21:09:02.534Z,10.6
2016-04-13T21:12:20.698Z,10.6
2016-04-13T21:15:28.378Z,10.6
2016-04-13T21:18:31.198Z,10.6
2016-04-13T21:21:44.069Z,10.6
2016-04-13T21:24:56.780Z,10.5
2016-04-13T21:28:09.772Z,10.5
2016-04-13T21:31:27.264Z,10.5
2016-04-13T21:34:30.257Z,10.4
2016-04-13T21:37:39.422Z,10.4
2016-04-13T21:40:51.995Z,10.4
2016-04-13T21:44:04.737Z,10.3
2016-04-13T21:47:22.354Z,10.3
2016-04-13T21:50:25.753Z,10.3
2016-04-13T21:53:38.589Z,10.3
2016-04-13T21:56:51.491Z,10.4
2016-04-13T22:00:04.249Z,10.4
2016-04-13T22:03:20.710Z,10.4
2016-04-13T22:06:28.734Z,10.3
2016-04-13T22:09:31.913Z,10.3
2016-04-13T22:12:44.752Z,10.3
2016-04-13T22:15:57.465Z,10.3
2016-04-13T22:19:09.909Z,10.2
2016-04-13T22:22:27.699Z,10.2
2016-04-13T22:25:34.675Z,10.2
2016-04-13T22:28:42.809Z,10.1
2016-04-13T22:31:53.789Z,10.1
2016-04-13T22:35:06.281Z,10
2016-04-13T22:38:24.023Z,9.9
2016-04-13T22:41:27.110Z,10
2016-04-13T22:44:38.132Z,10
2016-04-13T22:47:50.988Z,10
2016-04-13T22:51:03.137Z,9.9
2016-04-13T22:54:13.675Z,9.9
2016-04-13T22:57:26.246Z,10
2016-04-13T23:00:37.973Z,10
2016-04-13T23:03:48.327Z,9.9
2016-04-13T23:07:02.944Z,10
2016-04-13T23:10:15.735Z,10
2016-04-13T23:13:28.711Z,10
2016-04-13T23:16:41.671Z,9.9
2016-04-13T23:19:54.151Z,9.9
2016-04-13T23:23:06.675Z,9.9
2016-04-13T23:26:24.120Z,9.9
2016-04-13T23:29:30.988Z,9.9
2016-04-13T23:32:39.339Z,9.9
2016-04-13T23:35:49.934Z,9.9
2016-04-13T23:39:02.927Z,9.9
2016-04-13T23:42:15.529Z,9.8
2016-04-13T23:45:28.255Z,9.7
2016-04-13T23:48:41.170Z,9.7
2016-04-13T23:51:53.617Z,9.6
2016-04-13T23:55:06.578Z,9.6
2016-04-13T23:58:24.165Z,9.6
